createdAt,value
2023-01-22T00:02:07.670Z,2.47
2023-01-22T00:04:37.054Z,2.25
2023-01-22T00:07:04.442Z,2.60
2023-01-22T00:09:31.766Z,2.47
2023-01-22T00:11:59.125Z,2.63
2023-01-22T00:14:26.628Z,2.97
2023-01-22T00:16:54.017Z,2.53
2023-01-22T00:19:21.266Z,2.92
2023-01-22T00:21:48.561Z,2.63
2023-01-22T00:24:15.848Z,3.25
2023-01-22T00:26:42.999Z,3.55
2023-01-22T00:29:10.234Z,3.35
2023-01-22T00:31:37.804Z,3.13
2023-01-22T00:34:06.282Z,3.58
2023-01-22T00:36:33.463Z,3.28
2023-01-22T00:39:08.304Z,3.20
2023-01-22T00:41:35.521Z,2.78
2023-01-22T00:44:03.657Z,3.25
2023-01-22T00:46:30.957Z,3.00
2023-01-22T00:48:58.225Z,2.85
2023-01-22T00:51:25.539Z,2.67
2023-01-22T00:53:52.797Z,3.67
2023-01-22T00:56:21.357Z,3.17
2023-01-22T00:58:48.572Z,2.85
2023-01-22T01:01:16.266Z,2.90
2023-01-22T01:03:43.870Z,2.85
2023-01-22T01:06:15.653Z,2.80
2023-01-22T01:08:43.672Z,2.63
2023-01-22T01:11:14.174Z,3.17
2023-01-22T01:13:44.094Z,2.70
2023-01-22T01:16:15.737Z,3.00
2023-01-22T01:18:43.740Z,2.92
2023-01-22T01:21:12.033Z,3.40
2023-01-22T01:23:39.606Z,3.05
2023-01-22T01:26:10.665Z,3.10
2023-01-22T01:28:38.258Z,2.45
2023-01-22T01:31:06.674Z,2.60
2023-01-22T01:33:33.996Z,1.88
2023-01-22T01:36:07.258Z,2.55
2023-01-22T01:38:34.494Z,2.10
2023-01-22T01:41:01.737Z,1.92
2023-01-22T01:43:28.970Z,1.73
2023-01-22T01:46:00.261Z,1.75
2023-01-22T01:48:32.107Z,1.95
2023-01-22T01:51:04.865Z,1.60
2023-01-22T01:53:32.657Z,1.60
2023-01-22T01:56:01.722Z,2.15
2023-01-22T01:58:29.731Z,2.20
2023-01-22T02:01:01.647Z,1.87
2023-01-22T02:03:29.648Z,2.35
2023-01-22T02:05:57.107Z,2.03
2023-01-22T02:08:24.595Z,1.90
2023-01-22T02:10:52.145Z,2.20
2023-01-22T02:13:21.396Z,2.25
2023-01-22T02:15:48.616Z,2.10
2023-01-22T02:18:15.843Z,1.83
2023-01-22T02:20:52.034Z,1.90
2023-01-22T02:23:19.371Z,1.63
2023-01-22T02:25:46.687Z,2.03
2023-01-22T02:28:13.899Z,1.65
2023-01-22T02:30:41.697Z,1.65
2023-01-22T02:33:08.919Z,1.88
2023-01-22T02:35:36.107Z,1.85
2023-01-22T02:38:03.550Z,1.90
2023-01-22T02:40:32.296Z,1.58
2023-01-22T02:45:26.869Z,2.00
2023-01-22T02:47:54.080Z,1.70
2023-01-22T02:50:21.749Z,1.70
2023-01-22T02:52:48.904Z,1.83
2023-01-22T02:55:16.134Z,1.38
2023-01-22T02:57:43.295Z,1.52
2023-01-22T03:00:12.213Z,1.70
2023-01-22T03:02:39.952Z,2.00
2023-01-22T03:05:07.280Z,1.40
2023-01-22T03:07:44.886Z,1.95
2023-01-22T03:10:17.369Z,2.00
2023-01-22T03:13:04.138Z,1.60
2023-01-22T03:15:50.733Z,1.75
2023-01-22T03:18:36.709Z,1.73
2023-01-22T03:21:14.583Z,1.88
2023-01-22T03:23:42.396Z,1.57
2023-01-22T03:26:09.946Z,2.07
2023-01-22T03:28:37.370Z,1.77
2023-01-22T03:31:04.820Z,1.85
2023-01-22T03:33:32.466Z,2.05
2023-01-22T03:36:03.632Z,1.60
2023-01-22T03:38:31.117Z,2.70
2023-01-22T03:41:02.468Z,2.03
2023-01-22T03:43:29.692Z,1.75
2023-01-22T03:46:00.744Z,2.28
2023-01-22T03:48:28.037Z,2.13
2023-01-22T03:50:55.210Z,2.70
2023-01-22T03:53:22.526Z,2.28
2023-01-22T03:55:59.972Z,2.50
2023-01-22T03:58:27.447Z,2.00
2023-01-22T04:00:57.680Z,1.60
2023-01-22T04:03:26.108Z,1.60
2023-01-22T04:05:54.931Z,2.25
2023-01-22T04:08:22.710Z,2.03
2023-01-22T04:10:49.904Z,2.30
2023-01-22T04:13:17.262Z,2.20
2023-01-22T04:15:45.446Z,2.83
2023-01-22T04:18:13.244Z,3.45
2023-01-22T04:20:40.771Z,2.33
2023-01-22T04:23:08.263Z,2.63
2023-01-22T04:25:35.928Z,4.05
2023-01-22T04:28:03.402Z,4.55
2023-01-22T04:30:30.801Z,3.53
2023-01-22T04:33:01.360Z,5.05
2023-01-22T04:35:28.489Z,9.73
2023-01-22T04:37:55.814Z,3.97
2023-01-22T04:40:23.067Z,3.70
2023-01-22T04:42:50.491Z,3.28
2023-01-22T04:45:17.741Z,3.60
2023-01-22T04:47:45.927Z,3.75
2023-01-22T04:50:17.864Z,3.63
2023-01-22T04:52:45.592Z,3.28
2023-01-22T04:55:14.375Z,3.05
2023-01-22T05:00:08.963Z,2.85
2023-01-22T05:02:36.287Z,19.40
2023-01-22T05:05:03.490Z,4.35
2023-01-22T05:07:30.719Z,3.30
2023-01-22T05:09:57.885Z,2.80
2023-01-22T05:12:25.087Z,2.97
2023-01-22T05:14:52.281Z,6.50
2023-01-22T05:17:19.611Z,4.20
2023-01-22T05:19:46.811Z,5.10
2023-01-22T05:22:14.403Z,10.18
2023-01-22T05:24:41.590Z,5.85
2023-01-22T05:27:08.809Z,5.18
2023-01-22T05:29:36.088Z,7.75
2023-01-22T05:32:03.433Z,6.82
2023-01-22T05:34:30.632Z,13.05
2023-01-22T05:36:57.849Z,20.95
2023-01-22T05:39:25.087Z,18.50
2023-01-22T05:41:53.230Z,18.52
2023-01-22T05:44:20.484Z,11.18
2023-01-22T05:46:47.750Z,6.68
2023-01-22T05:49:14.970Z,4.25
2023-01-22T05:51:42.193Z,3.60
2023-01-22T05:54:09.531Z,4.63
2023-01-22T05:56:36.697Z,2.90
2023-01-22T05:59:04.009Z,3.80
2023-01-22T06:01:31.286Z,4.85
2023-01-22T06:03:58.627Z,3.53
2023-01-22T06:06:25.864Z,4.70
2023-01-22T06:08:53.255Z,5.63
2023-01-22T06:11:20.503Z,4.78
2023-01-22T06:13:47.904Z,4.93
2023-01-22T06:16:15.238Z,5.65
2023-01-22T06:18:42.541Z,6.00
2023-01-22T06:21:10.227Z,6.05
2023-01-22T06:23:37.550Z,6.28
2023-01-22T06:26:05.355Z,6.40
2023-01-22T06:28:32.676Z,5.55
2023-01-22T06:31:07.620Z,6.32
2023-01-22T06:33:37.684Z,5.97
2023-01-22T06:36:05.849Z,5.50
2023-01-22T06:38:33.437Z,4.82
2023-01-22T06:41:00.874Z,6.05
2023-01-22T06:43:28.589Z,6.38
2023-01-22T06:45:56.250Z,7.93
2023-01-22T06:48:23.563Z,6.45
2023-01-22T06:50:50.962Z,9.90
2023-01-22T06:53:18.446Z,5.50
2023-01-22T06:55:45.700Z,5.57
2023-01-22T06:58:13.170Z,5.40
2023-01-22T07:00:40.377Z,5.22
2023-01-22T07:03:08.502Z,5.53
2023-01-22T07:05:36.070Z,8.13
2023-01-22T07:08:04.302Z,5.75
2023-01-22T07:10:31.654Z,5.75
2023-01-22T07:12:59.257Z,7.18
2023-01-22T07:15:26.910Z,7.55
2023-01-22T07:17:55.093Z,6.80
2023-01-22T07:20:23.249Z,9.05
2023-01-22T07:22:50.889Z,7.30
2023-01-22T07:25:18.826Z,7.05
2023-01-22T07:27:46.116Z,10.67
2023-01-22T07:30:13.619Z,8.70
2023-01-22T07:32:41.221Z,8.45
2023-01-22T07:35:09.091Z,7.35
2023-01-22T07:37:36.590Z,6.80
2023-01-22T07:40:05.056Z,7.63
2023-01-22T07:42:32.389Z,7.57
2023-01-22T07:45:00.204Z,6.95
2023-01-22T07:47:27.527Z,7.32
2023-01-22T07:49:54.870Z,6.00
2023-01-22T07:52:22.061Z,5.80
2023-01-22T07:54:49.357Z,6.22
2023-01-22T07:57:16.746Z,5.82
2023-01-22T07:59:44.031Z,6.03
2023-01-22T08:02:14.835Z,5.25
2023-01-22T08:04:43.113Z,5.80
2023-01-22T08:07:15.486Z,7.22
2023-01-22T08:09:42.783Z,6.70
2023-01-22T08:12:10.080Z,8.75
2023-01-22T08:14:37.485Z,8.38
2023-01-22T08:17:04.741Z,10.30
2023-01-22T08:19:32.579Z,8.63
2023-01-22T08:21:59.808Z,11.80
2023-01-22T08:24:27.407Z,12.73
2023-01-22T08:26:56.209Z,13.10
2023-01-22T08:31:50.847Z,7.97
2023-01-22T08:34:18.137Z,6.73
2023-01-22T08:36:45.363Z,5.40
2023-01-22T08:39:13.869Z,4.30
2023-01-22T08:41:41.627Z,4.18
2023-01-22T08:44:08.997Z,4.05
2023-01-22T08:46:40.146Z,3.75
2023-01-22T08:49:08.057Z,3.50
2023-01-22T08:51:35.672Z,5.60
2023-01-22T08:54:02.877Z,5.28
2023-01-22T08:56:30.244Z,4.88
2023-01-22T08:59:00.145Z,5.32
2023-01-22T09:01:27.628Z,4.43
2023-01-22T09:03:55.015Z,4.10
2023-01-22T09:06:23.278Z,4.90
2023-01-22T09:08:50.551Z,5.00
2023-01-22T09:11:17.765Z,4.10
2023-01-22T09:13:44.981Z,6.25
2023-01-22T09:16:12.421Z,5.85
2023-01-22T09:18:40.390Z,4.13
2023-01-22T09:21:08.535Z,4.22
2023-01-22T09:23:35.798Z,4.90
2023-01-22T09:26:03.115Z,4.80
2023-01-22T09:28:30.482Z,3.25
2023-01-22T09:30:57.978Z,4.68
2023-01-22T09:33:25.282Z,4.82
2023-01-22T09:35:52.515Z,4.55
2023-01-22T09:38:19.877Z,3.92
2023-01-22T09:40:53.294Z,5.22
2023-01-22T09:43:37.689Z,3.17
2023-01-22T09:46:13.231Z,3.38
2023-01-22T09:48:42.093Z,3.83
2023-01-22T09:53:39.953Z,11.55
2023-01-22T09:56:08.400Z,8.20
2023-01-22T09:58:36.357Z,7.28
2023-01-22T10:01:06.074Z,8.20
2023-01-22T10:03:45.305Z,10.15
2023-01-22T10:06:19.303Z,7.80
2023-01-22T10:08:52.465Z,9.93
2023-01-22T10:11:19.753Z,9.10
2023-01-22T10:13:48.864Z,9.60
2023-01-22T10:16:16.114Z,11.43
2023-01-22T10:18:49.664Z,11.10
2023-01-22T10:21:21.552Z,9.40
2023-01-22T10:23:50.210Z,6.53
2023-01-22T10:26:26.287Z,5.53
2023-01-22T10:28:56.085Z,5.22
2023-01-22T10:31:30.564Z,6.65
2023-01-22T10:34:02.834Z,10.05
2023-01-22T10:36:31.086Z,11.02
2023-01-22T10:39:07.593Z,10.70
2023-01-22T10:41:34.953Z,10.55
2023-01-22T10:44:17.418Z,12.25
2023-01-22T10:46:46.492Z,6.82
2023-01-22T10:49:21.176Z,9.57
2023-01-22T10:52:08.433Z,8.80
2023-01-22T10:54:39.586Z,10.85
2023-01-22T10:57:17.484Z,10.02
2023-01-22T10:59:53.157Z,6.20
2023-01-22T11:02:24.996Z,5.70
2023-01-22T11:04:52.887Z,9.52
2023-01-22T11:07:40.451Z,7.60
2023-01-22T11:10:19.026Z,4.30
2023-01-22T11:12:50.711Z,7.53
2023-01-22T11:15:25.175Z,5.65
2023-01-22T11:17:53.691Z,6.03
2023-01-22T11:20:23.891Z,4.20
2023-01-22T11:23:03.235Z,6.10
2023-01-22T11:25:35.718Z,5.00
2023-01-22T11:28:18.669Z,4.68
2023-01-22T11:31:09.671Z,5.10
2023-01-22T11:33:37.113Z,6.63
2023-01-22T11:36:09.853Z,3.92
2023-01-22T11:38:52.289Z,4.00
2023-01-22T11:41:35.102Z,3.97
2023-01-22T11:44:20.994Z,3.80
2023-01-22T11:46:55.767Z,5.18
2023-01-22T11:49:29.176Z,6.05
2023-01-22T11:52:06.277Z,9.82
2023-01-22T11:54:51.021Z,4.03
2023-01-22T11:57:21.388Z,3.20
2023-01-22T12:00:08.235Z,3.08
2023-01-22T12:02:47.382Z,2.67
2023-01-22T12:05:14.664Z,2.67
2023-01-22T12:07:49.632Z,2.80
2023-01-22T12:10:41.347Z,3.17
2023-01-22T12:13:20.429Z,3.03
2023-01-22T12:15:47.707Z,3.78
2023-01-22T12:18:30.034Z,13.50
2023-01-22T12:20:57.241Z,4.68
2023-01-22T12:23:45.036Z,4.55
2023-01-22T12:26:15.785Z,4.37
2023-01-22T12:28:49.920Z,4.88
2023-01-22T12:31:29.289Z,5.57
2023-01-22T12:33:59.300Z,5.47
2023-01-22T12:36:27.756Z,4.78
2023-01-22T12:38:55.389Z,4.68
2023-01-22T12:41:22.662Z,6.00
2023-01-22T12:44:10.573Z,4.78
2023-01-22T12:46:56.346Z,5.53
2023-01-22T12:49:23.695Z,4.50
2023-01-22T12:51:52.037Z,4.85
2023-01-22T12:54:23.559Z,5.75
2023-01-22T12:56:51.691Z,6.78
2023-01-22T12:59:37.096Z,6.32
2023-01-22T13:02:22.035Z,5.82
2023-01-22T13:04:49.462Z,4.43
2023-01-22T13:07:22.510Z,5.88
2023-01-22T13:10:00.713Z,8.90
2023-01-22T13:12:29.691Z,4.78
2023-01-22T13:14:57.385Z,4.75
2023-01-22T13:17:26.547Z,4.80
2023-01-22T13:19:55.340Z,4.60
2023-01-22T13:22:23.680Z,5.78
2023-01-22T13:24:55.217Z,7.35
2023-01-22T13:27:24.408Z,9.25
2023-01-22T13:29:51.762Z,7.82
2023-01-22T13:32:21.344Z,10.30
2023-01-22T13:34:48.820Z,10.45
2023-01-22T13:37:21.927Z,8.88
2023-01-22T13:39:50.320Z,9.55
2023-01-22T13:42:17.638Z,13.18
2023-01-22T13:44:49.410Z,14.10
2023-01-22T13:47:27.696Z,11.48
2023-01-22T13:49:55.378Z,11.80
2023-01-22T13:52:22.989Z,19.38
2023-01-22T13:54:58.774Z,9.88
2023-01-22T13:57:26.004Z,12.35
2023-01-22T13:59:54.092Z,14.13
2023-01-22T14:02:27.960Z,13.97
2023-01-22T14:04:55.226Z,11.65
2023-01-22T14:07:26.341Z,10.52
2023-01-22T14:09:53.977Z,5.80
2023-01-22T14:12:22.398Z,6.78
2023-01-22T14:14:49.847Z,7.78
2023-01-22T14:17:22.991Z,7.63
2023-01-22T14:19:50.344Z,10.15
2023-01-22T14:22:17.745Z,8.82
2023-01-22T14:24:46.597Z,22.67
2023-01-22T14:29:41.614Z,8.50
2023-01-22T14:32:08.841Z,10.63
2023-01-22T14:34:36.061Z,15.32
2023-01-22T14:37:03.300Z,11.27
2023-01-22T14:39:34.002Z,8.65
2023-01-22T14:42:01.678Z,8.40
2023-01-22T14:44:29.378Z,10.07
2023-01-22T14:46:56.749Z,7.40
2023-01-22T14:49:24.031Z,9.43
2023-01-22T14:51:53.578Z,10.23
2023-01-22T14:54:20.855Z,10.32
2023-01-22T14:56:48.169Z,7.65
2023-01-22T14:59:15.429Z,7.82
2023-01-22T15:01:42.726Z,10.00
2023-01-22T15:04:09.926Z,5.63
2023-01-22T15:06:37.148Z,5.20
2023-01-22T15:09:04.535Z,5.80
2023-01-22T15:11:32.311Z,5.93
2023-01-22T15:13:59.574Z,7.85
2023-01-22T15:16:26.914Z,7.45
2023-01-22T15:18:55.422Z,5.07
2023-01-22T15:21:23.011Z,3.08
2023-01-22T15:23:50.699Z,3.30
2023-01-22T15:26:28.348Z,2.75
2023-01-22T15:28:55.869Z,3.75
2023-01-22T15:31:23.134Z,3.97
2023-01-22T15:33:50.468Z,4.50
2023-01-22T15:36:17.771Z,4.50
2023-01-22T15:38:45.092Z,3.08
2023-01-22T15:41:18.552Z,2.92
2023-01-22T15:43:50.637Z,4.38
2023-01-22T15:46:21.639Z,5.50
2023-01-22T15:48:49.205Z,6.70
2023-01-22T15:51:16.971Z,4.55
2023-01-22T15:53:54.561Z,4.47
2023-01-22T15:56:22.444Z,4.40
2023-01-22T15:58:51.131Z,4.10
2023-01-22T16:01:21.746Z,4.90
2023-01-22T16:03:50.344Z,5.53
2023-01-22T16:06:18.900Z,5.63
2023-01-22T16:08:47.261Z,8.38
2023-01-22T16:11:14.868Z,10.15
2023-01-22T16:13:42.812Z,8.63
2023-01-22T16:16:32.623Z,7.43
2023-01-22T16:19:01.029Z,8.63
2023-01-22T16:21:28.403Z,7.18
2023-01-22T16:23:57.130Z,9.23
2023-01-22T16:26:25.822Z,7.45
2023-01-22T16:28:54.435Z,4.50
2023-01-22T16:31:23.733Z,7.55
2023-01-22T16:33:53.483Z,3.55
2023-01-22T16:36:21.902Z,7.47
2023-01-22T16:38:49.455Z,7.95
2023-01-22T16:41:24.765Z,6.75
2023-01-22T16:44:02.961Z,18.27
2023-01-22T16:46:31.490Z,9.75
2023-01-22T16:49:03.447Z,7.45
2023-01-22T16:51:34.709Z,4.03
2023-01-22T16:54:02.057Z,5.78
2023-01-22T16:56:29.209Z,12.70
2023-01-22T16:58:58.301Z,7.35
2023-01-22T17:01:26.076Z,8.05
2023-01-22T17:03:53.626Z,9.20
2023-01-22T17:06:31.437Z,7.35
2023-01-22T17:09:03.377Z,7.68
2023-01-22T17:11:30.628Z,8.13
2023-01-22T17:13:59.341Z,5.85
2023-01-22T17:16:26.608Z,6.20
2023-01-22T17:18:56.315Z,7.10
2023-01-22T17:21:23.842Z,6.90
2023-01-22T17:23:51.110Z,5.10
2023-01-22T17:26:18.777Z,4.55
2023-01-22T17:28:46.094Z,4.03
2023-01-22T17:31:19.065Z,5.00
2023-01-22T17:33:46.895Z,4.15
2023-01-22T17:36:15.516Z,4.55
2023-01-22T17:38:43.003Z,4.95
2023-01-22T17:41:11.778Z,3.90
2023-01-22T17:43:39.156Z,3.63
2023-01-22T17:46:10.287Z,3.58
2023-01-22T17:48:38.244Z,9.40
2023-01-22T17:51:06.794Z,20.33
2023-01-22T17:53:36.345Z,12.30
2023-01-22T17:56:06.373Z,13.63
2023-01-22T17:58:33.579Z,18.33
2023-01-22T18:01:05.950Z,16.52
2023-01-22T18:03:33.254Z,9.45
2023-01-22T18:06:01.014Z,6.32
2023-01-22T18:08:29.444Z,5.75
2023-01-22T18:10:57.241Z,11.80
2023-01-22T18:13:25.328Z,6.38
2023-01-22T18:15:53.059Z,4.60
2023-01-22T18:18:20.327Z,12.82
2023-01-22T18:20:47.657Z,3.42
2023-01-22T18:23:15.748Z,5.63
2023-01-22T18:25:56.217Z,6.32
2023-01-22T18:28:24.401Z,4.32
2023-01-22T18:30:52.178Z,3.13
2023-01-22T18:33:20.691Z,4.57
2023-01-22T18:35:53.062Z,3.25
2023-01-22T18:38:25.083Z,3.90
2023-01-22T18:40:52.605Z,5.82
2023-01-22T18:43:19.987Z,4.65
2023-01-22T18:45:47.237Z,4.20
2023-01-22T18:48:16.669Z,4.10
2023-01-22T18:50:44.593Z,3.50
2023-01-22T18:53:12.132Z,5.57
2023-01-22T18:55:41.343Z,4.65
2023-01-22T18:58:17.237Z,4.57
2023-01-22T19:00:44.505Z,4.50
2023-01-22T19:03:12.450Z,4.55
2023-01-22T19:05:40.258Z,5.67
2023-01-22T19:08:07.453Z,9.95
2023-01-22T19:10:34.794Z,6.82
2023-01-22T19:13:02.331Z,10.20
2023-01-22T19:15:30.625Z,6.57
2023-01-22T19:17:57.837Z,4.03
2023-01-22T19:20:25.081Z,8.82
2023-01-22T19:22:53.346Z,30.98
2023-01-22T19:25:21.262Z,15.73
2023-01-22T19:27:48.683Z,16.17
2023-01-22T19:30:16.890Z,8.23
2023-01-22T19:32:45.422Z,4.18
2023-01-22T19:35:13.297Z,16.67
2023-01-22T19:37:40.556Z,6.20
2023-01-22T19:40:10.964Z,4.60
2023-01-22T19:42:41.419Z,3.85
2023-01-22T19:45:08.863Z,3.08
2023-01-22T19:47:36.101Z,7.63
2023-01-22T19:50:03.029Z,3.17
2023-01-22T19:52:30.294Z,6.07
2023-01-22T19:54:57.608Z,11.05
2023-01-22T19:57:25.087Z,20.00
2023-01-22T19:59:54.352Z,17.42
2023-01-22T20:02:23.639Z,6.97
2023-01-22T20:04:50.924Z,11.98
2023-01-22T20:07:21.510Z,12.20
2023-01-22T20:09:49.625Z,5.28
2023-01-22T20:12:16.964Z,6.38
2023-01-22T20:14:44.469Z,5.82
2023-01-22T20:17:16.852Z,11.60
2023-01-22T20:19:44.161Z,9.10
2023-01-22T20:22:11.445Z,39.95
2023-01-22T20:24:40.301Z,14.95
2023-01-22T20:29:35.749Z,11.67
2023-01-22T20:32:03.521Z,19.58
2023-01-22T20:34:30.793Z,19.73
2023-01-22T20:36:58.088Z,18.90
2023-01-22T20:39:25.314Z,5.75
2023-01-22T20:41:53.684Z,8.18
2023-01-22T20:46:48.867Z,3.85
2023-01-22T20:49:16.272Z,3.33
2023-01-22T20:51:43.628Z,16.88
2023-01-22T20:54:11.338Z,24.95
2023-01-22T20:56:38.650Z,9.27
2023-01-22T20:59:07.708Z,19.85
2023-01-22T21:01:35.511Z,12.52
2023-01-22T21:04:03.302Z,7.40
2023-01-22T21:06:31.909Z,6.53
2023-01-22T21:09:00.896Z,5.43
2023-01-22T21:11:30.197Z,5.07
2023-01-22T21:13:58.653Z,8.10
2023-01-22T21:16:27.676Z,6.75
2023-01-22T21:18:56.107Z,4.43
2023-01-22T21:21:23.858Z,4.35
2023-01-22T21:23:51.828Z,4.72
2023-01-22T21:26:22.734Z,4.33
2023-01-22T21:29:00.943Z,35.65
2023-01-22T21:31:28.651Z,16.73
2023-01-22T21:34:03.519Z,21.45
2023-01-22T21:36:32.646Z,18.65
2023-01-22T21:39:00.353Z,7.78
2023-01-22T21:41:28.829Z,15.80
2023-01-22T21:44:34.816Z,7.82
2023-01-22T21:47:02.567Z,7.25
2023-01-22T21:49:30.169Z,7.03
2023-01-22T21:51:58.996Z,6.53
2023-01-22T21:56:59.593Z,4.63
2023-01-22T21:59:26.834Z,5.75
2023-01-22T22:01:54.741Z,17.55
2023-01-22T22:04:22.991Z,13.70
2023-01-22T22:06:50.422Z,10.15
2023-01-22T22:09:19.168Z,6.70
2023-01-22T22:11:46.426Z,16.90
2023-01-22T22:14:15.795Z,15.70
2023-01-22T22:16:45.937Z,13.10
2023-01-22T22:19:14.178Z,13.23
2023-01-22T22:21:41.536Z,18.70
2023-01-22T22:24:09.273Z,8.77
2023-01-22T22:26:36.813Z,8.93
2023-01-22T22:29:05.021Z,6.32
2023-01-22T22:31:32.640Z,4.68
2023-01-22T22:34:00.317Z,4.75
2023-01-22T22:36:28.633Z,4.70
2023-01-22T22:38:55.901Z,6.82
2023-01-22T22:41:27.373Z,5.57
2023-01-22T22:43:55.426Z,5.32
2023-01-22T22:46:24.395Z,5.37
2023-01-22T22:48:52.382Z,8.27
2023-01-22T22:51:23.851Z,5.67
2023-01-22T22:53:54.835Z,5.70
2023-01-22T22:56:22.542Z,6.18
2023-01-22T22:58:49.956Z,5.90
2023-01-22T23:01:18.624Z,5.53
2023-01-22T23:03:45.986Z,6.22
2023-01-22T23:06:14.489Z,5.80
2023-01-22T23:08:42.742Z,6.32
2023-01-22T23:11:11.189Z,7.78
2023-01-22T23:13:38.916Z,8.50
2023-01-22T23:16:07.489Z,7.07
2023-01-22T23:18:35.409Z,8.50
2023-01-22T23:21:06.598Z,6.30
2023-01-22T23:23:34.281Z,4.13
2023-01-22T23:26:01.918Z,4.22
2023-01-22T23:28:29.180Z,3.83
2023-01-22T23:30:56.577Z,4.40
2023-01-22T23:33:23.986Z,4.30
2023-01-22T23:35:52.338Z,3.20
2023-01-22T23:38:21.798Z,3.35
2023-01-22T23:40:56.571Z,4.13
2023-01-22T23:43:24.522Z,3.53
2023-01-22T23:45:51.833Z,2.97
2023-01-22T23:48:19.381Z,3.70
2023-01-22T23:50:47.532Z,5.03
2023-01-22T23:53:14.967Z,4.38
2023-01-22T23:55:42.218Z,4.72
2023-01-22T23:58:09.591Z,4.53
